createdAt,value
2022-11-22T00:01:21.934Z,99587.00
2022-11-22T00:06:43.732Z,99587.81
2022-11-22T00:12:05.805Z,99590.41
2022-11-22T00:17:27.946Z,99605.72
2022-11-22T00:22:49.762Z,99597.19
2022-11-22T00:28:11.686Z,99587.84
2022-11-22T00:33:33.800Z,99599.66
2022-11-22T00:38:55.621Z,99592.88
2022-11-22T00:44:17.449Z,99593.72
2022-11-22T00:49:39.342Z,99596.28
2022-11-22T00:55:01.284Z,99601.34
2022-11-22T01:00:23.152Z,99604.75
2022-11-22T01:05:45.101Z,99610.81
2022-11-22T01:11:06.914Z,99593.81
2022-11-22T01:16:28.766Z,99587.91
2022-11-22T01:21:50.556Z,99587.03
2022-11-22T01:27:12.402Z,99594.63
2022-11-22T01:32:34.402Z,99593.81
2022-11-22T01:37:56.219Z,99595.53
2022-11-22T01:43:23.319Z,99593.84
2022-11-22T01:48:53.598Z,99588.78
2022-11-22T01:54:21.958Z,99581.19
2022-11-22T01:59:48.660Z,99579.50
2022-11-22T02:05:17.799Z,99591.31
2022-11-22T02:10:44.472Z,99607.44
2022-11-22T02:16:07.245Z,99620.91
2022-11-22T02:21:29.408Z,99617.59
2022-11-22T02:26:51.254Z,99620.94
2022-11-22T02:32:13.095Z,99614.97
2022-11-22T02:37:34.963Z,99619.97
2022-11-22T02:43:03.059Z,99639.44
2022-11-22T02:48:25.051Z,99641.19
2022-11-22T02:53:49.159Z,99637.84
2022-11-22T02:59:10.996Z,99640.38
2022-11-22T03:04:32.814Z,99639.47
2022-11-22T03:09:54.608Z,99632.75
2022-11-22T03:15:16.456Z,99638.69
2022-11-22T03:20:38.265Z,99616.69
2022-11-22T03:26:00.228Z,99629.38
2022-11-22T03:31:22.228Z,99620.88
2022-11-22T03:36:44.129Z,99628.47
2022-11-22T03:42:05.965Z,99621.75
2022-11-22T03:47:27.738Z,99624.34
2022-11-22T03:52:49.570Z,99640.47
2022-11-22T03:58:11.425Z,99631.19
2022-11-22T04:03:33.270Z,99624.44
2022-11-22T04:08:55.142Z,99631.19
2022-11-22T04:14:17.042Z,99627.75
2022-11-22T04:19:38.855Z,99616.72
2022-11-22T04:25:00.637Z,99623.56
2022-11-22T04:30:23.395Z,99623.53
2022-11-22T04:35:45.768Z,99621.06
2022-11-22T04:41:07.558Z,99601.59
2022-11-22T04:46:29.521Z,99615.94
2022-11-22T04:51:51.370Z,99611.78
2022-11-22T04:57:13.232Z,99607.56
2022-11-22T05:02:35.011Z,99614.34
2022-11-22T05:07:58.879Z,99621.09
2022-11-22T05:13:23.031Z,99626.97
2022-11-22T05:18:44.825Z,99615.16
2022-11-22T05:24:07.006Z,99637.09
2022-11-22T05:29:28.893Z,99631.19
2022-11-22T05:34:50.880Z,99636.28
2022-11-22T05:40:13.845Z,99629.50
2022-11-22T05:45:35.642Z,99649.81
2022-11-22T05:50:57.427Z,99658.31
2022-11-22T05:56:21.626Z,99680.31
2022-11-22T06:01:43.466Z,99682.84
2022-11-22T06:07:09.780Z,99677.81
2022-11-22T06:12:32.079Z,99694.72
2022-11-22T06:17:53.845Z,99682.91
2022-11-22T06:23:15.648Z,99693.03
2022-11-22T06:28:39.072Z,99698.97
2022-11-22T06:34:01.160Z,99701.44
2022-11-22T06:39:23.087Z,99697.25
2022-11-22T06:44:44.893Z,99709.06
2022-11-22T06:50:07.095Z,99714.19
2022-11-22T06:55:49.647Z,99715.00
2022-11-22T07:01:14.207Z,99712.50
2022-11-22T07:06:38.096Z,99713.34
2022-11-22T07:11:59.915Z,99714.22
2022-11-22T07:17:21.876Z,99725.16
2022-11-22T07:22:43.621Z,99706.56
2022-11-22T07:28:05.375Z,99730.22
2022-11-22T07:33:27.483Z,99720.88
2022-11-22T07:38:50.472Z,99727.63
2022-11-22T07:44:12.283Z,99720.03
2022-11-22T07:49:34.161Z,99724.38
2022-11-22T07:54:55.950Z,99736.22
2022-11-22T08:00:18.362Z,99723.53
2022-11-22T08:05:40.155Z,99732.00
2022-11-22T08:11:02.919Z,99738.72
2022-11-22T08:16:24.748Z,99735.31
2022-11-22T08:21:48.383Z,99740.28
2022-11-22T08:27:10.312Z,99739.50
2022-11-22T08:32:32.135Z,99736.97
2022-11-22T08:37:57.674Z,99742.03
2022-11-22T08:43:19.529Z,99763.13
2022-11-22T08:48:41.378Z,99764.88
2022-11-22T09:00:18.087Z,99740.31
2022-11-22T09:11:21.921Z,99762.25
2022-11-22T09:16:43.749Z,99758.75
2022-11-22T09:22:05.602Z,99760.56
2022-11-22T09:27:27.522Z,99750.41
2022-11-22T09:32:49.337Z,99750.25
2022-11-22T09:38:11.178Z,99765.59
2022-11-22T09:43:51.545Z,99772.41
2022-11-22T09:49:37.614Z,99756.19
2022-11-22T09:55:04.020Z,99776.59
2022-11-22T10:00:28.629Z,99770.75
2022-11-22T10:05:58.277Z,99754.66
2022-11-22T10:11:36.258Z,99750.47
2022-11-22T10:17:08.615Z,99762.25
2022-11-22T10:22:30.674Z,99751.22
2022-11-22T10:28:02.811Z,99731.63
2022-11-22T10:33:48.393Z,99761.13
2022-11-22T10:39:27.856Z,99744.91
2022-11-22T10:44:53.313Z,99761.91
2022-11-22T10:50:27.971Z,99776.19
2022-11-22T10:56:25.823Z,99777.72
2022-11-22T11:02:12.424Z,99785.94
2022-11-22T11:07:34.966Z,99788.28
2022-11-22T11:13:01.818Z,99768.81
2022-11-22T11:18:38.292Z,99780.75
2022-11-22T11:24:00.013Z,99774.22
2022-11-22T11:29:37.387Z,99758.72
2022-11-22T11:35:05.929Z,99774.63
2022-11-22T11:40:31.552Z,99752.75
2022-11-22T11:45:53.402Z,99755.41
2022-11-22T11:51:43.016Z,99765.72
2022-11-22T11:57:05.779Z,99753.97
2022-11-22T12:02:38.866Z,99751.25
2022-11-22T12:08:01.562Z,99745.50
2022-11-22T12:13:31.699Z,99732.81
2022-11-22T12:18:59.528Z,99738.47
2022-11-22T12:24:52.241Z,99747.28
2022-11-22T12:30:17.801Z,99738.03
2022-11-22T12:35:44.510Z,99755.59
2022-11-22T12:41:11.679Z,99755.78
2022-11-22T12:46:40.195Z,99747.09
2022-11-22T12:52:22.329Z,99744.72
2022-11-22T12:57:52.322Z,99725.22
2022-11-22T13:03:19.989Z,99736.31
2022-11-22T13:09:01.917Z,99739.00
2022-11-22T13:14:32.545Z,99750.66
2022-11-22T13:20:00.526Z,99751.03
2022-11-22T13:25:28.209Z,99732.31
2022-11-22T13:31:05.367Z,99741.00
2022-11-22T13:36:27.100Z,99737.41
2022-11-22T13:42:00.463Z,99749.50
2022-11-22T13:47:22.227Z,99753.69
2022-11-22T13:52:51.998Z,99743.41
2022-11-22T13:58:25.765Z,99749.44
2022-11-22T14:03:47.572Z,99758.88
2022-11-22T14:09:37.393Z,99748.75
2022-11-22T14:15:23.487Z,99752.13
2022-11-22T14:21:07.316Z,99757.16
2022-11-22T14:27:06.932Z,99768.34
2022-11-22T14:32:42.764Z,99778.50
2022-11-22T14:38:07.533Z,99765.72
2022-11-22T14:43:32.671Z,99768.19
2022-11-22T14:49:25.935Z,99751.34
2022-11-22T14:54:50.284Z,99774.28
2022-11-22T15:00:22.193Z,99769.94
2022-11-22T15:09:12.945Z,99772.53
2022-11-22T15:12:20.664Z,99782.75
2022-11-22T15:58:12.965Z,99781.97
2022-11-22T16:03:39.590Z,99764.09
2022-11-22T16:09:05.096Z,99766.63
2022-11-22T16:14:50.238Z,99774.28
2022-11-22T16:20:23.926Z,99775.94
2022-11-22T16:25:48.673Z,99769.25
2022-11-22T16:31:18.379Z,99775.13
2022-11-22T16:36:40.159Z,99763.25
2022-11-22T16:42:01.971Z,99774.38
2022-11-22T16:47:23.751Z,99760.75
2022-11-22T16:52:46.733Z,99774.34
2022-11-22T16:58:18.159Z,99782.75
2022-11-22T17:03:40.165Z,99765.03
2022-11-22T17:09:03.687Z,99787.88
2022-11-22T17:14:25.526Z,99790.47
2022-11-22T17:19:54.884Z,99801.47
2022-11-22T17:25:16.816Z,99787.88
2022-11-22T17:30:38.705Z,99785.38
2022-11-22T17:36:00.632Z,99794.69
2022-11-22T17:41:23.402Z,99792.97
2022-11-22T17:46:45.348Z,99793.81
2022-11-22T17:52:07.144Z,99791.28
2022-11-22T17:57:28.952Z,99801.44
2022-11-22T18:02:50.831Z,99807.38
2022-11-22T18:08:12.679Z,99806.53
2022-11-22T18:13:36.697Z,99813.34
2022-11-22T18:18:58.788Z,99818.41
2022-11-22T18:24:20.764Z,99800.63
2022-11-22T18:29:43.265Z,99809.94
2022-11-22T18:35:05.382Z,99826.03
2022-11-22T18:40:27.217Z,99808.25
2022-11-22T18:45:49.047Z,99830.22
2022-11-22T18:51:10.832Z,99821.78
2022-11-22T18:56:32.626Z,99820.09
2022-11-22T19:01:54.586Z,99824.34
2022-11-22T19:07:16.481Z,99827.72
2022-11-22T19:12:38.301Z,99838.75
2022-11-22T19:18:00.098Z,99827.72
2022-11-22T19:23:21.955Z,99827.72
2022-11-22T19:28:43.848Z,99834.47
2022-11-22T19:34:05.812Z,99822.63
2022-11-22T19:39:27.704Z,99841.25
2022-11-22T19:44:49.540Z,99851.44
2022-11-22T19:50:11.331Z,99863.31
2022-11-22T19:55:34.231Z,99850.59
2022-11-22T20:00:56.034Z,99863.31
2022-11-22T20:06:18.171Z,99880.25
2022-11-22T20:11:41.484Z,99870.91
2022-11-22T20:17:03.303Z,99892.13
2022-11-22T20:22:25.123Z,99891.28
2022-11-22T20:27:46.921Z,99892.97
2022-11-22T20:33:08.752Z,99877.72
2022-11-22T20:38:34.403Z,99896.34
2022-11-22T20:43:56.745Z,99876.88
2022-11-22T20:49:18.786Z,99892.97
2022-11-22T20:54:40.596Z,99882.78
2022-11-22T21:00:02.430Z,99894.66
2022-11-22T21:05:24.231Z,99893.81
2022-11-22T21:10:46.092Z,99889.56
2022-11-22T21:16:22.140Z,99874.34
2022-11-22T21:21:44.906Z,99889.56
2022-11-22T21:27:06.697Z,99892.09
2022-11-22T21:32:31.167Z,99891.28
2022-11-22T21:37:54.330Z,99894.66
2022-11-22T21:43:16.119Z,99894.66
2022-11-22T21:48:37.973Z,99892.13
2022-11-22T21:54:01.123Z,99880.25
2022-11-22T21:59:22.916Z,99887.84
2022-11-22T22:04:44.763Z,99881.09
2022-11-22T22:10:06.861Z,99876.84
2022-11-22T22:15:28.723Z,99856.50
2022-11-22T22:20:59.041Z,99861.63
2022-11-22T22:26:20.805Z,99869.22
2022-11-22T22:31:42.599Z,99867.56
2022-11-22T22:37:04.408Z,99876.88
2022-11-22T22:42:26.203Z,99877.72
2022-11-22T22:47:48.004Z,99870.06
2022-11-22T22:53:10.026Z,99847.22
2022-11-22T22:58:31.778Z,99857.38
2022-11-22T23:03:58.711Z,99851.47
2022-11-22T23:09:20.662Z,99848.03
2022-11-22T23:14:42.425Z,99848.91
2022-11-22T23:20:04.510Z,99838.72
2022-11-22T23:25:26.301Z,99824.31
2022-11-22T23:30:48.057Z,99845.53
2022-11-22T23:36:12.130Z,99832.78
2022-11-22T23:41:33.944Z,99834.50
2022-11-22T23:46:55.738Z,99816.72
2022-11-22T23:52:17.501Z,99820.06
2022-11-22T23:57:39.360Z,99832.78
